createdAt,value
2018-01-21T00:00:09.682Z,98.38
2018-01-21T00:01:09.673Z,98.38
2018-01-21T00:02:09.661Z,98.47
2018-01-21T00:03:09.649Z,98.28
2018-01-21T00:04:09.642Z,98.57
2018-01-21T00:05:09.638Z,98.38
2018-01-21T00:06:09.622Z,98.38
2018-01-21T00:07:09.613Z,98.76
2018-01-21T00:08:09.605Z,98.85
2018-01-21T00:09:09.594Z,99.33
2018-01-21T00:10:09.584Z,99.33
2018-01-21T00:11:09.574Z,98.95
2018-01-21T00:12:09.564Z,99.23
2018-01-21T00:13:09.560Z,99.33
2018-01-21T00:14:09.546Z,99.33
2018-01-21T00:15:09.535Z,99.33
2018-01-21T00:16:09.526Z,99.23
2018-01-21T00:17:09.517Z,98.85
2018-01-21T00:18:09.506Z,99.14
2018-01-21T00:19:09.498Z,99.04
2018-01-21T00:20:09.485Z,99.14
2018-01-21T00:21:09.478Z,99.14
2018-01-21T00:22:09.466Z,98.47
2018-01-21T00:23:09.460Z,98.47
2018-01-21T00:24:09.448Z,98.38
2018-01-21T00:25:09.437Z,98.28
2018-01-21T00:26:09.428Z,99.23
2018-01-21T00:27:09.418Z,99.33
2018-01-21T00:28:09.407Z,99.23
2018-01-21T00:29:09.398Z,98.38
2018-01-21T00:30:09.389Z,98.47
2018-01-21T00:31:09.378Z,98.76
2018-01-21T00:32:09.370Z,98.66
2018-01-21T00:33:09.361Z,98.85
2018-01-21T00:34:09.346Z,98.28
2018-01-21T00:35:09.340Z,98.47
2018-01-21T00:36:09.330Z,98.85
2018-01-21T00:37:09.321Z,98.66
2018-01-21T00:38:09.316Z,98.66
2018-01-21T00:39:09.301Z,98.66
2018-01-21T00:40:09.293Z,98.66
2018-01-21T00:41:09.282Z,98.66
2018-01-21T00:42:09.273Z,98.76
2018-01-21T00:43:09.263Z,99.04
2018-01-21T00:44:09.256Z,98.28
2018-01-21T00:45:09.243Z,98.57
2018-01-21T00:46:09.235Z,98.47
2018-01-21T00:47:09.227Z,98.28
2018-01-21T00:48:09.218Z,98.76
2018-01-21T00:49:09.205Z,98.76
2018-01-21T00:50:09.195Z,98.85
2018-01-21T00:51:09.189Z,98.95
2018-01-21T00:52:09.176Z,98.57
2018-01-21T00:53:09.164Z,98.85
2018-01-21T00:54:09.156Z,98.95
2018-01-21T00:55:09.149Z,99.04
2018-01-21T00:56:09.138Z,99.80
2018-01-21T00:57:09.128Z,99.89
2018-01-21T00:58:09.118Z,99.89
2018-01-21T00:59:09.109Z,99.61
2018-01-21T01:00:09.100Z,99.89
2018-01-21T01:01:09.088Z,99.71
2018-01-21T01:02:09.078Z,99.71
2018-01-21T01:03:09.069Z,99.33
2018-01-21T01:04:09.059Z,99.23
2018-01-21T01:05:09.050Z,99.23
2018-01-21T01:06:09.040Z,99.99
2018-01-21T01:07:09.033Z,99.99
2018-01-21T01:08:09.021Z,99.99
2018-01-21T01:09:09.017Z,99.61
2018-01-21T01:10:09.001Z,99.99
2018-01-21T01:11:08.991Z,99.80
2018-01-21T01:12:08.982Z,99.99
2018-01-21T01:13:08.974Z,99.80
2018-01-21T01:14:08.960Z,99.61
2018-01-21T01:15:08.955Z,99.52
2018-01-21T01:16:08.942Z,99.71
2018-01-21T01:17:08.932Z,99.52
2018-01-21T01:18:08.921Z,99.89
2018-01-21T01:19:08.910Z,99.71
2018-01-21T01:20:08.902Z,99.71
2018-01-21T01:21:08.893Z,99.99
2018-01-21T01:22:08.882Z,99.71
2018-01-21T01:23:08.876Z,99.76
2018-01-21T01:24:08.860Z,99.99
2018-01-21T01:25:08.855Z,99.71
2018-01-21T01:26:08.844Z,99.80
2018-01-21T01:27:08.835Z,99.14
2018-01-21T01:28:08.824Z,98.95
2018-01-21T01:29:08.813Z,99.14
2018-01-21T01:30:08.799Z,99.28
2018-01-21T01:31:08.794Z,99.28
2018-01-21T01:32:08.784Z,99.47
2018-01-21T01:33:08.775Z,99.14
2018-01-21T01:34:08.769Z,99.28
2018-01-21T01:35:08.755Z,99.28
2018-01-21T01:36:08.746Z,98.71
2018-01-21T01:37:08.738Z,99.00
2018-01-21T01:38:08.724Z,98.71
2018-01-21T01:39:08.719Z,98.71
2018-01-21T01:40:08.710Z,99.19
2018-01-21T01:41:08.697Z,99.19
2018-01-21T01:42:08.686Z,98.71
2018-01-21T01:43:08.676Z,99.38
2018-01-21T01:44:08.670Z,98.71
2018-01-21T01:45:08.656Z,98.71
2018-01-21T01:46:08.642Z,99.00
2018-01-21T01:47:08.638Z,99.09
2018-01-21T01:48:08.630Z,99.00
2018-01-21T01:49:08.616Z,99.28
2018-01-21T01:50:08.609Z,99.19
2018-01-21T01:51:08.603Z,99.38
2018-01-21T01:52:08.589Z,99.09
2018-01-21T01:53:08.578Z,99.19
2018-01-21T01:54:08.569Z,99.38
2018-01-21T01:55:08.562Z,98.81
2018-01-21T01:56:08.549Z,98.52
2018-01-21T01:57:08.539Z,98.71
2018-01-21T01:58:08.530Z,98.71
2018-01-21T01:59:08.521Z,98.81
2018-01-21T02:00:08.510Z,98.90
2018-01-21T02:01:08.498Z,98.71
2018-01-21T02:02:08.490Z,98.90
2018-01-21T02:03:08.489Z,99.09
2018-01-21T02:04:08.470Z,98.52
2018-01-21T02:05:08.481Z,98.81
2018-01-21T02:06:08.451Z,98.71
2018-01-21T02:07:08.441Z,98.62
2018-01-21T02:08:08.432Z,98.71
2018-01-21T02:09:08.421Z,98.81
2018-01-21T02:10:08.412Z,98.62
2018-01-21T02:11:08.406Z,98.43
2018-01-21T02:12:08.393Z,98.90
2018-01-21T02:13:08.382Z,99.09
2018-01-21T02:14:08.373Z,98.33
2018-01-21T02:15:08.370Z,98.81
2018-01-21T02:16:08.364Z,98.62
2018-01-21T02:17:08.342Z,98.62
2018-01-21T02:18:08.334Z,98.24
2018-01-21T02:19:08.326Z,98.14
2018-01-21T02:20:08.313Z,98.52
2018-01-21T02:21:08.305Z,98.43
2018-01-21T02:22:08.295Z,98.43
2018-01-21T02:23:08.286Z,98.62
2018-01-21T02:24:08.275Z,98.05
2018-01-21T02:25:08.267Z,98.62
2018-01-21T02:26:08.252Z,98.43
2018-01-21T02:27:08.249Z,98.14
2018-01-21T02:28:08.239Z,98.33
2018-01-21T02:29:08.227Z,98.33
2018-01-21T02:30:08.226Z,98.33
2018-01-21T02:31:08.209Z,98.43
2018-01-21T02:32:08.252Z,98.62
2018-01-21T02:33:08.189Z,98.43
2018-01-21T02:34:08.179Z,98.33
2018-01-21T02:35:08.171Z,98.43
2018-01-21T02:36:08.175Z,98.43
2018-01-21T02:37:08.152Z,98.43
2018-01-21T02:38:08.142Z,98.43
2018-01-21T02:39:08.131Z,98.43
2018-01-21T02:40:08.125Z,98.62
2018-01-21T02:41:08.115Z,98.43
2018-01-21T02:42:08.105Z,98.33
2018-01-21T02:43:08.093Z,98.33
2018-01-21T02:44:08.088Z,98.43
2018-01-21T02:45:08.075Z,98.24
2018-01-21T02:46:08.065Z,98.71
2018-01-21T02:47:08.056Z,98.71
2018-01-21T02:48:08.048Z,98.81
2018-01-21T02:49:08.036Z,98.81
2018-01-21T02:50:08.027Z,99.00
2018-01-21T02:51:08.016Z,99.00
2018-01-21T02:52:08.007Z,98.33
2018-01-21T02:53:07.995Z,98.81
2018-01-21T02:54:07.986Z,98.43
2018-01-21T02:55:07.980Z,98.33
2018-01-21T02:56:07.975Z,99.09
2018-01-21T02:57:07.959Z,98.90
2018-01-21T02:58:07.950Z,98.71
2018-01-21T02:59:07.938Z,98.52
2018-01-21T03:00:07.929Z,98.81
2018-01-21T03:01:07.921Z,98.52
2018-01-21T03:02:07.909Z,98.81
2018-01-21T03:03:07.902Z,98.71
2018-01-21T03:04:07.892Z,98.90
2018-01-21T03:05:07.899Z,98.90
2018-01-21T03:06:07.869Z,98.90
2018-01-21T03:07:07.858Z,98.81
2018-01-21T03:08:07.850Z,98.43
2018-01-21T03:09:07.841Z,98.71
2018-01-21T03:10:07.827Z,98.52
2018-01-21T03:11:07.820Z,98.52
2018-01-21T03:12:07.814Z,98.52
2018-01-21T03:13:07.798Z,98.71
2018-01-21T03:14:07.790Z,98.52
2018-01-21T03:15:07.782Z,98.71
2018-01-21T03:16:07.765Z,98.71
2018-01-21T03:17:07.760Z,98.62
2018-01-21T03:18:07.750Z,98.71
2018-01-21T03:19:07.740Z,98.71
2018-01-21T03:20:07.730Z,98.71
2018-01-21T03:21:07.721Z,98.62
2018-01-21T03:22:07.707Z,98.62
2018-01-21T03:23:07.700Z,98.62
2018-01-21T03:24:07.690Z,98.90
2018-01-21T03:25:07.681Z,98.90
2018-01-21T03:26:07.680Z,98.90
2018-01-21T03:27:07.660Z,99.00
2018-01-21T03:28:07.657Z,99.00
2018-01-21T03:29:07.641Z,98.81
2018-01-21T03:30:07.633Z,99.00
2018-01-21T03:31:07.624Z,98.90
2018-01-21T03:32:07.612Z,99.00
2018-01-21T03:33:07.602Z,98.90
2018-01-21T03:34:07.590Z,98.71
2018-01-21T03:35:07.581Z,98.43
2018-01-21T03:36:07.571Z,98.47
2018-01-21T03:37:07.562Z,99.28
2018-01-21T03:38:07.555Z,99.04
2018-01-21T03:39:07.542Z,99.19
2018-01-21T03:40:07.533Z,99.38
2018-01-21T03:41:07.519Z,99.28
2018-01-21T03:42:07.513Z,99.09
2018-01-21T03:43:07.506Z,99.28
2018-01-21T03:44:07.493Z,99.19
2018-01-21T03:45:07.481Z,99.28
2018-01-21T03:46:07.475Z,99.28
2018-01-21T03:47:07.459Z,99.09
2018-01-21T03:48:07.452Z,99.00
2018-01-21T03:49:07.442Z,99.09
2018-01-21T03:50:07.433Z,98.90
2018-01-21T03:51:07.418Z,99.09
2018-01-21T03:52:07.411Z,99.57
2018-01-21T03:53:07.401Z,99.19
2018-01-21T03:54:07.391Z,98.95
2018-01-21T03:55:07.383Z,99.09
2018-01-21T03:56:07.370Z,99.19
2018-01-21T03:57:07.362Z,99.19
2018-01-21T03:58:07.350Z,99.09
2018-01-21T03:59:07.338Z,99.23
2018-01-21T04:00:07.330Z,99.19
2018-01-21T04:01:07.321Z,99.19
2018-01-21T04:02:07.310Z,99.19
2018-01-21T04:03:07.300Z,98.90
2018-01-21T04:04:07.300Z,99.28
2018-01-21T04:05:07.279Z,98.90
2018-01-21T04:06:07.270Z,99.09
2018-01-21T04:07:07.261Z,99.09
2018-01-21T04:08:07.251Z,99.00
2018-01-21T04:09:07.248Z,99.57
2018-01-21T04:10:07.229Z,99.09
2018-01-21T04:11:07.217Z,99.19
2018-01-21T04:12:07.211Z,99.57
2018-01-21T04:13:07.198Z,99.09
2018-01-21T04:14:07.231Z,99.38
2018-01-21T04:15:07.187Z,99.38
2018-01-21T04:16:07.171Z,99.09
2018-01-21T04:17:07.161Z,99.28
2018-01-21T04:18:07.148Z,99.28
2018-01-21T04:19:07.140Z,98.71
2018-01-21T04:20:07.130Z,98.90
2018-01-21T04:21:07.127Z,99.00
2018-01-21T04:22:07.110Z,99.19
2018-01-21T04:23:07.102Z,99.19
2018-01-21T04:24:07.092Z,99.19
2018-01-21T04:25:07.082Z,99.38
2018-01-21T04:26:07.069Z,98.33
2018-01-21T04:27:07.065Z,98.43
2018-01-21T04:28:07.054Z,98.81
2018-01-21T04:29:07.040Z,98.43
2018-01-21T04:30:07.028Z,98.43
2018-01-21T04:31:07.022Z,98.52
2018-01-21T04:32:07.013Z,98.52
2018-01-21T04:33:07.001Z,98.71
2018-01-21T04:34:06.990Z,98.52
2018-01-21T04:35:06.984Z,98.62
2018-01-21T04:36:06.970Z,98.52
2018-01-21T04:37:06.963Z,98.71
2018-01-21T04:38:06.951Z,98.81
2018-01-21T04:39:06.947Z,98.90
2018-01-21T04:40:06.933Z,98.71
2018-01-21T04:41:06.923Z,98.81
2018-01-21T04:42:06.908Z,98.90
2018-01-21T04:43:06.905Z,98.71
2018-01-21T04:44:06.894Z,98.81
2018-01-21T04:45:06.881Z,98.71
2018-01-21T04:46:06.886Z,98.71
2018-01-21T04:47:06.875Z,98.52
2018-01-21T04:48:06.850Z,98.52
2018-01-21T04:49:06.844Z,98.43
2018-01-21T04:50:06.837Z,98.43
2018-01-21T04:51:06.824Z,98.43
2018-01-21T04:52:06.819Z,98.52
2018-01-21T04:53:06.805Z,98.90
2018-01-21T04:54:06.791Z,99.28
2018-01-21T04:55:06.784Z,99.19
2018-01-21T04:56:06.828Z,99.09
2018-01-21T04:57:06.765Z,99.19
2018-01-21T04:58:06.758Z,99.19
2018-01-21T04:59:06.744Z,98.71
2018-01-21T05:00:06.737Z,98.71
2018-01-21T05:01:06.725Z,99.76
2018-01-21T05:02:06.714Z,99.57
2018-01-21T05:03:06.714Z,99.47
2018-01-21T05:04:06.697Z,99.00
2018-01-21T05:05:06.685Z,99.09
2018-01-21T05:06:06.678Z,99.00
2018-01-21T05:07:06.665Z,99.00
2018-01-21T05:08:06.655Z,99.19
2018-01-21T05:09:06.645Z,99.57
2018-01-21T05:10:06.635Z,99.57
2018-01-21T05:11:06.625Z,99.28
2018-01-21T05:12:06.615Z,99.28
2018-01-21T05:13:06.605Z,99.28
2018-01-21T05:14:06.593Z,99.19
2018-01-21T05:15:06.584Z,99.09
2018-01-21T05:16:06.577Z,99.38
2018-01-21T05:17:06.571Z,99.57
2018-01-21T05:18:06.556Z,99.09
2018-01-21T05:19:06.542Z,98.81
2018-01-21T05:20:06.535Z,99.09
2018-01-21T05:21:06.527Z,98.71
2018-01-21T05:22:06.513Z,99.28
2018-01-21T05:23:06.505Z,99.09
2018-01-21T05:24:06.495Z,99.47
2018-01-21T05:25:06.484Z,99.09
2018-01-21T05:26:06.473Z,99.28
2018-01-21T05:27:06.464Z,99.47
2018-01-21T05:28:06.456Z,98.90
2018-01-21T05:29:06.445Z,98.90
2018-01-21T05:30:06.434Z,99.28
2018-01-21T05:31:06.423Z,99.09
2018-01-21T05:32:06.416Z,99.19
2018-01-21T05:33:06.404Z,99.38
2018-01-21T05:34:06.393Z,99.19
2018-01-21T05:35:06.383Z,98.43
2018-01-21T05:36:06.384Z,99.19
2018-01-21T05:37:06.367Z,98.43
2018-01-21T05:38:06.356Z,98.62
2018-01-21T05:39:06.344Z,98.52
2018-01-21T05:40:06.335Z,98.43
2018-01-21T05:41:06.337Z,98.33
2018-01-21T05:42:06.313Z,99.09
2018-01-21T05:43:06.309Z,99.28
2018-01-21T05:44:06.294Z,99.38
2018-01-21T05:45:06.284Z,99.28
2018-01-21T05:46:06.280Z,99.19
2018-01-21T05:47:06.267Z,99.28
2018-01-21T05:48:06.254Z,99.19
2018-01-21T05:49:06.245Z,98.43
2018-01-21T05:50:06.233Z,98.52
2018-01-21T05:51:06.224Z,98.71
2018-01-21T05:52:06.215Z,98.62
2018-01-21T05:53:06.206Z,98.81
2018-01-21T05:54:06.194Z,98.81
2018-01-21T05:55:06.186Z,99.00
2018-01-21T05:56:06.174Z,98.81
2018-01-21T05:57:06.165Z,98.33
2018-01-21T05:58:06.157Z,98.90
2018-01-21T05:59:06.145Z,98.81
2018-01-21T06:00:06.136Z,98.81
2018-01-21T06:01:06.127Z,98.81
2018-01-21T06:02:06.113Z,98.43
2018-01-21T06:03:06.109Z,98.43
2018-01-21T06:04:06.093Z,98.81
2018-01-21T06:05:06.086Z,98.90
2018-01-21T06:06:06.077Z,98.33
2018-01-21T06:07:06.066Z,98.71
2018-01-21T06:08:06.054Z,98.71
2018-01-21T06:09:06.048Z,98.52
2018-01-21T06:10:06.036Z,98.14
2018-01-21T06:11:06.026Z,98.24
2018-01-21T06:12:06.020Z,98.43
2018-01-21T06:13:06.007Z,98.43
2018-01-21T06:14:06.002Z,98.33
2018-01-21T06:15:05.986Z,98.05
2018-01-21T06:16:05.976Z,98.33
2018-01-21T06:17:05.966Z,98.43
2018-01-21T06:18:05.955Z,98.24
2018-01-21T06:19:05.946Z,98.33
2018-01-21T06:20:05.942Z,98.43
2018-01-21T06:21:05.927Z,98.24
2018-01-21T06:22:05.919Z,98.24
2018-01-21T06:23:05.909Z,98.33
2018-01-21T06:24:05.902Z,98.43
2018-01-21T06:25:05.884Z,98.33
2018-01-21T06:26:05.878Z,98.52
2018-01-21T06:27:05.867Z,98.52
2018-01-21T06:28:05.856Z,98.43
2018-01-21T06:29:05.848Z,99.00
2018-01-21T06:30:05.840Z,98.81
2018-01-21T06:31:05.829Z,98.71
2018-01-21T06:32:05.819Z,98.43
2018-01-21T06:33:05.804Z,98.71
2018-01-21T06:34:05.798Z,98.52
2018-01-21T06:35:05.789Z,98.52
2018-01-21T06:36:05.778Z,99.00
2018-01-21T06:37:05.772Z,99.19
2018-01-21T06:38:05.760Z,99.28
2018-01-21T06:39:05.747Z,99.28
2018-01-21T06:40:05.739Z,98.81
2018-01-21T06:41:05.731Z,99.19
2018-01-21T06:42:05.719Z,99.19
2018-01-21T06:43:05.709Z,98.52
2018-01-21T06:44:05.700Z,98.71
2018-01-21T06:45:05.687Z,98.81
2018-01-21T06:46:05.679Z,98.90
2018-01-21T06:47:05.671Z,98.71
2018-01-21T06:48:05.661Z,98.90
2018-01-21T06:49:05.659Z,98.81
2018-01-21T06:50:05.642Z,98.90
2018-01-21T06:51:05.633Z,98.71
2018-01-21T06:52:05.621Z,98.62
2018-01-21T06:53:05.611Z,98.62
2018-01-21T06:54:05.620Z,98.71
2018-01-21T06:55:05.596Z,98.71
2018-01-21T06:56:05.580Z,98.52
2018-01-21T06:57:05.575Z,98.33
2018-01-21T06:58:05.558Z,99.19
2018-01-21T06:59:05.551Z,99.09
2018-01-21T07:00:05.544Z,99.09
2018-01-21T07:01:05.532Z,99.09
2018-01-21T07:02:05.522Z,98.90
2018-01-21T07:03:05.510Z,98.90
2018-01-21T07:04:05.497Z,99.00
2018-01-21T07:05:05.492Z,99.28
2018-01-21T07:06:05.481Z,99.19
2018-01-21T07:07:05.474Z,99.19
2018-01-21T07:08:05.462Z,99.19
2018-01-21T07:09:05.450Z,99.00
2018-01-21T07:10:05.441Z,98.62
2018-01-21T07:11:05.431Z,98.52
2018-01-21T07:12:05.421Z,98.43
2018-01-21T07:13:05.412Z,98.43
2018-01-21T07:14:05.400Z,98.62
2018-01-21T07:15:05.392Z,98.62
2018-01-21T07:16:05.380Z,98.71
2018-01-21T07:17:05.370Z,98.62
2018-01-21T07:18:05.361Z,98.33
2018-01-21T07:19:05.351Z,99.00
2018-01-21T07:20:05.344Z,99.28
2018-01-21T07:21:05.331Z,99.38
2018-01-21T07:22:05.319Z,99.19
2018-01-21T07:23:05.311Z,99.19
2018-01-21T07:24:05.301Z,99.28
2018-01-21T07:25:05.290Z,99.09
2018-01-21T07:26:05.287Z,98.71
2018-01-21T07:27:05.270Z,99.19
2018-01-21T07:28:05.258Z,99.09
2018-01-21T07:29:05.251Z,99.09
2018-01-21T07:30:05.242Z,99.28
2018-01-21T07:31:05.242Z,99.09
2018-01-21T07:32:05.221Z,99.47
2018-01-21T07:33:05.212Z,99.47
2018-01-21T07:34:05.199Z,99.19
2018-01-21T07:35:05.189Z,99.00
2018-01-21T07:36:05.197Z,98.90
2018-01-21T07:37:05.178Z,99.28
2018-01-21T07:38:05.176Z,99.09
2018-01-21T07:39:05.150Z,99.19
2018-01-21T07:40:05.142Z,98.81
2018-01-21T07:41:05.134Z,98.52
2018-01-21T07:42:05.124Z,98.90
2018-01-21T07:43:05.112Z,98.71
2018-01-21T07:44:05.106Z,98.52
2018-01-21T07:45:05.093Z,98.33
2018-01-21T07:46:05.086Z,98.43
2018-01-21T07:47:05.074Z,98.52
2018-01-21T07:48:05.064Z,98.62
2018-01-21T07:49:05.054Z,98.24
2018-01-21T07:50:05.046Z,98.33
2018-01-21T07:51:05.037Z,98.24
2018-01-21T07:52:05.025Z,98.39
2018-01-21T07:53:05.014Z,98.43
2018-01-21T07:54:05.006Z,98.48
2018-01-21T07:55:04.995Z,98.29
2018-01-21T07:56:04.985Z,98.48
2018-01-21T07:57:04.975Z,98.48
2018-01-21T07:58:04.966Z,98.48
2018-01-21T07:59:04.953Z,98.10
2018-01-21T08:00:04.945Z,98.01
2018-01-21T08:01:04.938Z,97.91
2018-01-21T08:02:04.968Z,97.72
2018-01-21T08:03:04.920Z,97.58
2018-01-21T08:04:04.910Z,97.72
2018-01-21T08:05:04.898Z,97.91
2018-01-21T08:06:04.888Z,98.20
2018-01-21T08:07:04.883Z,97.53
2018-01-21T08:08:04.871Z,97.25
2018-01-21T08:09:04.864Z,97.25
2018-01-21T08:10:04.853Z,97.44
2018-01-21T08:11:04.842Z,97.53
2018-01-21T08:12:04.833Z,97.34
2018-01-21T08:13:04.825Z,97.06
2018-01-21T08:14:04.814Z,97.63
2018-01-21T08:15:04.806Z,97.63
2018-01-21T08:16:04.796Z,97.34
2018-01-21T08:17:04.785Z,97.06
2018-01-21T08:18:04.773Z,97.44
2018-01-21T08:19:04.766Z,96.97
2018-01-21T08:20:04.759Z,97.25
2018-01-21T08:21:04.750Z,97.16
2018-01-21T08:22:04.739Z,97.16
2018-01-21T08:23:04.731Z,96.69
2018-01-21T08:24:04.721Z,96.40
2018-01-21T08:25:04.708Z,96.31
2018-01-21T08:26:04.705Z,96.21
2018-01-21T08:27:04.691Z,96.69
2018-01-21T08:28:04.712Z,96.59
2018-01-21T08:29:04.675Z,97.06
2018-01-21T08:30:04.667Z,96.97
2018-01-21T08:31:04.660Z,97.06
2018-01-21T08:32:04.646Z,96.88
2018-01-21T08:33:04.637Z,97.34
2018-01-21T08:34:04.633Z,97.06
2018-01-21T08:35:04.630Z,97.06
2018-01-21T08:36:04.611Z,96.31
2018-01-21T08:37:04.596Z,96.31
2018-01-21T08:38:04.593Z,96.12
2018-01-21T08:39:04.584Z,96.12
2018-01-21T08:40:04.576Z,96.12
2018-01-21T08:41:04.564Z,96.21
2018-01-21T08:42:04.553Z,96.02
2018-01-21T08:43:04.545Z,96.40
2018-01-21T08:44:04.530Z,96.40
2018-01-21T08:45:04.526Z,96.69
2018-01-21T08:46:04.513Z,95.93
2018-01-21T08:47:04.510Z,95.74
2018-01-21T08:48:04.498Z,96.02
2018-01-21T08:49:04.492Z,95.93
2018-01-21T08:50:04.484Z,96.02
2018-01-21T08:51:04.469Z,96.59
2018-01-21T08:52:04.462Z,96.78
2018-01-21T08:53:04.453Z,96.12
2018-01-21T08:54:04.442Z,96.31
2018-01-21T08:55:04.434Z,96.78
2018-01-21T08:56:04.427Z,96.02
2018-01-21T08:57:04.417Z,95.83
2018-01-21T08:58:04.407Z,96.21
2018-01-21T08:59:04.398Z,96.02
2018-01-21T09:00:04.388Z,95.64
2018-01-21T09:01:04.380Z,95.55
2018-01-21T09:02:04.370Z,95.55
2018-01-21T09:03:04.361Z,95.64
2018-01-21T09:04:04.353Z,95.64
2018-01-21T09:05:04.345Z,95.93
2018-01-21T09:06:04.336Z,96.40
2018-01-21T09:07:04.324Z,96.31
2018-01-21T09:08:04.316Z,96.59
2018-01-21T09:09:04.306Z,95.83
2018-01-21T09:10:04.297Z,95.93
2018-01-21T09:11:04.286Z,95.93
2018-01-21T09:12:04.280Z,95.93
2018-01-21T09:13:04.272Z,95.93
2018-01-21T09:14:04.262Z,95.93
2018-01-21T09:15:04.251Z,95.74
2018-01-21T09:16:04.239Z,96.02
2018-01-21T09:17:04.234Z,96.02
2018-01-21T09:18:04.223Z,95.93
2018-01-21T09:19:04.226Z,95.74
2018-01-21T09:20:04.211Z,95.74
2018-01-21T09:21:04.214Z,95.17
2018-01-21T09:22:04.186Z,95.36
2018-01-21T09:23:04.180Z,95.26
2018-01-21T09:24:04.169Z,95.26
2018-01-21T09:25:04.159Z,95.17
2018-01-21T09:26:04.153Z,95.17
2018-01-21T09:27:04.142Z,95.07
2018-01-21T09:28:04.135Z,94.60
2018-01-21T09:29:04.128Z,94.70
2018-01-21T09:30:04.118Z,94.79
2018-01-21T09:31:04.116Z,94.70
2018-01-21T09:32:04.098Z,94.79
2018-01-21T09:33:04.087Z,94.98
2018-01-21T09:34:04.079Z,94.79
2018-01-21T09:35:04.075Z,94.98
2018-01-21T09:36:04.061Z,94.89
2018-01-21T09:37:04.053Z,94.89
2018-01-21T09:38:04.041Z,94.79
2018-01-21T09:39:04.036Z,94.98
2018-01-21T09:40:04.027Z,94.89
2018-01-21T09:41:04.017Z,94.79
2018-01-21T09:42:04.011Z,94.70
2018-01-21T09:43:03.998Z,94.89
2018-01-21T09:44:03.990Z,94.98
2018-01-21T09:45:03.987Z,94.98
2018-01-21T09:46:03.977Z,94.89
2018-01-21T09:47:03.965Z,94.51
2018-01-21T09:48:03.952Z,94.51
2018-01-21T09:49:03.946Z,94.98
2018-01-21T09:50:03.936Z,94.89
2018-01-21T09:51:03.926Z,94.98
2018-01-21T09:52:03.918Z,94.89
2018-01-21T09:53:03.909Z,94.79
2018-01-21T09:54:03.898Z,94.42
2018-01-21T09:55:03.893Z,94.51
2018-01-21T09:56:03.879Z,94.98
2018-01-21T09:57:03.880Z,94.89
2018-01-21T09:58:03.862Z,94.79
2018-01-21T09:59:03.854Z,94.98
2018-01-21T10:00:03.844Z,94.89
2018-01-21T10:01:03.836Z,95.07
2018-01-21T10:02:03.825Z,94.89
2018-01-21T10:03:03.815Z,94.60
2018-01-21T10:04:03.808Z,95.36
2018-01-21T10:05:03.800Z,94.60
2018-01-21T10:06:03.789Z,94.89
2018-01-21T10:07:03.780Z,94.98
2018-01-21T10:08:03.770Z,94.98
2018-01-21T10:09:03.763Z,94.89
2018-01-21T10:10:03.753Z,94.60
2018-01-21T10:11:03.748Z,94.60
2018-01-21T10:12:03.737Z,94.70
2018-01-21T10:13:03.725Z,95.17
2018-01-21T10:14:03.712Z,94.79
2018-01-21T10:15:03.711Z,95.45
2018-01-21T10:16:03.698Z,95.36
2018-01-21T10:17:03.691Z,95.17
2018-01-21T10:18:03.682Z,95.17
2018-01-21T10:19:03.673Z,95.17
2018-01-21T10:20:03.662Z,95.17
2018-01-21T10:21:03.653Z,95.74
2018-01-21T10:22:03.643Z,95.26
2018-01-21T10:23:03.632Z,95.36
2018-01-21T10:24:03.626Z,95.36
2018-01-21T10:25:03.617Z,95.36
2018-01-21T10:26:03.606Z,95.36
2018-01-21T10:27:03.602Z,95.36
2018-01-21T10:28:03.590Z,94.60
2018-01-21T10:29:03.582Z,95.17
2018-01-21T10:30:03.570Z,94.98
2018-01-21T10:31:03.564Z,94.60
2018-01-21T10:32:03.554Z,94.51
2018-01-21T10:33:03.545Z,94.51
2018-01-21T10:34:03.534Z,94.60
2018-01-21T10:35:03.524Z,94.79
2018-01-21T10:36:03.522Z,94.98
2018-01-21T10:37:03.514Z,94.89
2018-01-21T10:38:03.499Z,95.36
2018-01-21T10:39:03.489Z,94.60
2018-01-21T10:40:03.478Z,94.79
2018-01-21T10:41:03.472Z,94.79
2018-01-21T10:42:03.466Z,94.89
2018-01-21T10:43:03.454Z,95.07
2018-01-21T10:44:03.445Z,95.17
2018-01-21T10:45:03.442Z,94.70
2018-01-21T10:46:03.429Z,94.42
2018-01-21T10:47:03.418Z,94.51
2018-01-21T10:48:03.410Z,94.51
2018-01-21T10:49:03.403Z,94.60
2018-01-21T10:50:03.393Z,94.51
2018-01-21T10:51:03.384Z,94.70
2018-01-21T10:52:03.373Z,93.94
2018-01-21T10:53:03.365Z,94.13
2018-01-21T10:54:03.365Z,94.04
2018-01-21T10:55:03.345Z,94.13
2018-01-21T10:56:03.337Z,94.23
2018-01-21T10:57:03.332Z,94.32
2018-01-21T10:58:03.315Z,94.23
2018-01-21T10:59:03.311Z,94.04
2018-01-21T11:00:03.303Z,94.13
2018-01-21T11:01:03.293Z,94.13
2018-01-21T11:02:03.284Z,93.94
2018-01-21T11:03:03.276Z,93.47
2018-01-21T11:04:03.268Z,93.70
2018-01-21T11:05:03.260Z,94.08
2018-01-21T11:06:03.249Z,93.51
2018-01-21T11:07:03.242Z,93.32
2018-01-21T11:08:03.232Z,93.32
2018-01-21T11:09:03.224Z,93.51
2018-01-21T11:10:03.216Z,93.51
2018-01-21T11:11:03.205Z,93.23
2018-01-21T11:12:03.198Z,93.51
2018-01-21T11:13:03.191Z,93.23
2018-01-21T11:14:03.178Z,93.42
2018-01-21T11:15:03.170Z,93.23
2018-01-21T11:16:03.161Z,93.51
2018-01-21T11:17:03.153Z,93.04
2018-01-21T11:18:03.143Z,93.13
2018-01-21T11:19:03.133Z,93.04
2018-01-21T11:20:03.124Z,93.42
2018-01-21T11:21:03.118Z,92.94
2018-01-21T11:22:03.106Z,92.76
2018-01-21T11:23:03.144Z,92.94
2018-01-21T11:24:03.090Z,92.85
2018-01-21T11:25:03.083Z,92.66
2018-01-21T11:26:03.067Z,93.13
2018-01-21T11:27:03.063Z,93.32
2018-01-21T11:28:03.055Z,93.32
2018-01-21T11:29:03.052Z,93.32
2018-01-21T11:30:03.042Z,93.13
2018-01-21T11:31:03.032Z,92.94
2018-01-21T11:32:03.020Z,92.94
2018-01-21T11:33:03.014Z,93.13
2018-01-21T11:34:03.003Z,92.00
2018-01-21T11:35:02.995Z,92.10
2018-01-21T11:36:02.985Z,92.38
2018-01-21T11:37:02.980Z,92.57
2018-01-21T11:38:02.969Z,92.66
2018-01-21T11:39:02.960Z,93.32
2018-01-21T11:40:02.956Z,92.76
2018-01-21T11:41:02.940Z,92.66
2018-01-21T11:42:02.936Z,92.94
2018-01-21T11:43:02.925Z,92.57
2018-01-21T11:44:02.919Z,93.42
2018-01-21T11:45:02.918Z,92.94
2018-01-21T11:46:02.898Z,93.32
2018-01-21T11:47:02.891Z,93.42
2018-01-21T11:48:02.881Z,93.32
2018-01-21T11:49:02.875Z,93.61
2018-01-21T11:50:02.869Z,93.56
2018-01-21T11:51:02.857Z,93.51
2018-01-21T11:52:02.850Z,93.51
2018-01-21T11:53:02.840Z,93.42
2018-01-21T11:54:02.830Z,93.80
2018-01-21T11:55:02.822Z,93.80
2018-01-21T11:56:02.815Z,93.42
2018-01-21T11:57:02.812Z,93.61
2018-01-21T11:58:02.824Z,93.32
2018-01-21T11:59:02.790Z,93.23
2018-01-21T12:00:02.776Z,93.51
2018-01-21T12:01:02.771Z,93.51
2018-01-21T12:02:02.760Z,93.42
2018-01-21T12:03:02.755Z,93.13
2018-01-21T12:04:02.747Z,92.47
2018-01-21T12:05:02.770Z,93.13
2018-01-21T12:06:02.731Z,92.94
2018-01-21T12:07:02.721Z,92.19
2018-01-21T12:08:02.710Z,92.47
2018-01-21T12:09:02.702Z,92.66
2018-01-21T12:10:02.696Z,92.38
2018-01-21T12:11:02.687Z,92.76
2018-01-21T12:12:02.678Z,92.85
2018-01-21T12:13:02.673Z,93.04
2018-01-21T12:14:02.658Z,93.13
2018-01-21T12:15:02.652Z,93.13
2018-01-21T12:16:02.643Z,92.76
2018-01-21T12:17:02.639Z,93.42
2018-01-21T12:18:02.636Z,92.76
2018-01-21T12:19:02.619Z,93.04
2018-01-21T12:20:02.611Z,92.38
2018-01-21T12:21:02.603Z,92.29
2018-01-21T12:22:02.594Z,92.00
2018-01-21T12:23:02.585Z,92.19
2018-01-21T12:24:02.577Z,92.29
2018-01-21T12:25:02.569Z,92.66
2018-01-21T12:26:02.562Z,91.62
2018-01-21T12:27:02.551Z,91.81
2018-01-21T12:28:02.539Z,91.91
2018-01-21T12:29:02.535Z,92.19
2018-01-21T12:30:02.528Z,92.00
2018-01-21T12:31:02.512Z,91.91
2018-01-21T12:32:02.510Z,92.85
2018-01-21T12:33:02.502Z,92.38
2018-01-21T12:34:02.496Z,91.81
2018-01-21T12:35:02.481Z,92.29
2018-01-21T12:36:02.476Z,92.29
2018-01-21T12:37:02.467Z,93.42
2018-01-21T12:38:02.458Z,92.66
2018-01-21T12:39:02.452Z,92.76
2018-01-21T12:40:02.441Z,92.66
2018-01-21T12:41:02.439Z,92.76
2018-01-21T12:42:02.423Z,92.66
2018-01-21T12:43:02.415Z,92.19
2018-01-21T12:44:02.416Z,92.38
2018-01-21T12:45:02.395Z,92.66
2018-01-21T12:46:02.448Z,92.10
2018-01-21T12:47:02.377Z,92.47
2018-01-21T12:48:02.373Z,92.19
2018-01-21T12:49:02.362Z,92.14
2018-01-21T12:50:02.356Z,92.14
2018-01-21T12:51:02.359Z,92.80
2018-01-21T12:52:02.339Z,92.43